INFORMACIÓN METAR y TAF
METAR FOR GCTS
ADDS - METARS form results

(2111 UTC 17 January 2020)
Data provider http://aviationweather.gov/metar/data/
 
METAR text: GCTS 172100Z 05007KT CAVOK 17/07 Q1029 NOSIG
Conditions at: GCTS (TENERIFE SUR/REI, ES) observed 2100 UTC 17 January 2020
Temperature: 17.0°C (63°F)
Dewpoint: 7.0°C (45°F) [RH = 52%]
Pressure (altimeter): 30.38 inches Hg (1029.0 mb)
Winds: from the NE (50 degrees) at 8 MPH (7 knots; 3.6 m/s)
Visibility: 6 or more miles (10+ km)
Ceiling: ceiling and visibility are OK
Clouds: unknown
Weather: no significant weather observed at this time

METAR text: GCTS 172030Z 03007KT 360V070 CAVOK 18/07 Q1028 NOSIG
Conditions at: GCTS (TENERIFE SUR/REI, ES) observed 2030 UTC 17 January 2020
Temperature: 18.0°C (64°F)
Dewpoint: 7.0°C (45°F) [RH = 49%]
Pressure (altimeter): 30.35 inches Hg (1028.0 mb)
Winds: from the NNE (30 degrees) at 8 MPH (7 knots; 3.6 m/s)
Visibility: 6 or more miles (10+ km)
Ceiling: ceiling and visibility are OK
Clouds: unknown
Weather: no significant weather observed at this time

Forecast for: GCTS (TENERIFE SUR/REI, ES)
Text: TAF GCTS 172000Z 1721/1821 05015KT CAVOK TX23/1815Z TN15/1806Z
Forecast period: 2100 UTC 17 January 2020 to 2100 UTC 18 January 2020
Forecast type: FROM: standard forecast or significant change
Winds: from the NE (50 degrees) at 17 MPH (15 knots; 7.7 m/s)
Visibility: 6 or more miles 10+ km)
Ceiling: unknown
Clouds: missing
Weather: no significant weather forecast for this period

MAPA DE AEROPUERTO

INFORMACIÓN DE PISTA
Pista 08 Longitud 10499 ft Ancho 148 ft
Elevación 187 ft Umbral desplazado 0 ft Rumbo de pista 69
Pista 26 Longitud 10499 ft Ancho 148 ft
Elevación 209 ft Umbral desplazado 0 ft Rumbo de pista 249

FRECUANCIAS DEL AEROPUERTO
Tipo APP Nombre APP Frecuencia 120.3 MHZ
Tipo ATIS Nombre ATIS Frecuencia 118.675 MHZ
Tipo GND Nombre GND Frecuencia 121.9 MHZ
Tipo TWR Nombre TWR Frecuencia 119 MHZ

RADIO AYUDAS DEL AEROPUERTO
Tipo NDB Nombre Tenerife Sur Frecuencia 317 KHZ
Tipo VOR-DME Nombre Tenerife Sur Frecuencia 116400 KHZ